createdAt,value
2023-04-22T00:00:54.870Z,12.47
2023-04-22T00:03:23.556Z,12.43
2023-04-22T00:05:51.633Z,12.46
2023-04-22T00:08:19.399Z,12.49
2023-04-22T00:10:47.097Z,12.61
2023-04-22T00:13:14.703Z,12.52
2023-04-22T00:15:42.475Z,12.45
2023-04-22T00:18:13.895Z,12.46
2023-04-22T00:20:42.863Z,12.39
2023-04-22T00:23:11.513Z,12.41
2023-04-22T00:25:40.521Z,12.37
2023-04-22T00:28:08.417Z,12.36
2023-04-22T00:30:36.326Z,12.34
2023-04-22T00:33:04.048Z,12.25
2023-04-22T00:35:33.119Z,12.34
2023-04-22T00:38:01.107Z,12.38
2023-04-22T00:40:28.748Z,12.32
2023-04-22T00:42:56.749Z,12.16
2023-04-22T00:45:24.376Z,12.18
2023-04-22T00:47:53.038Z,12.38
2023-04-22T00:50:20.899Z,12.46
2023-04-22T00:52:49.866Z,12.22
2023-04-22T00:55:17.519Z,12.23
2023-04-22T00:57:45.653Z,12.20
2023-04-22T01:00:14.188Z,12.27
2023-04-22T01:02:42.114Z,12.38
2023-04-22T01:05:11.150Z,12.33
2023-04-22T01:07:38.729Z,12.32
2023-04-22T01:10:09.031Z,12.28
2023-04-22T01:12:36.592Z,12.26
2023-04-22T01:15:05.162Z,12.29
2023-04-22T01:17:33.789Z,12.27
2023-04-22T01:20:01.681Z,12.47
2023-04-22T01:22:36.564Z,12.44
2023-04-22T01:25:06.815Z,12.28
2023-04-22T01:27:34.562Z,12.22
2023-04-22T01:30:02.328Z,12.24
2023-04-22T01:32:31.027Z,12.22
2023-04-22T01:34:59.076Z,12.35
2023-04-22T01:37:26.709Z,12.34
2023-04-22T01:39:54.548Z,12.33
2023-04-22T01:42:23.825Z,12.26
2023-04-22T01:44:51.472Z,12.29
2023-04-22T01:47:19.309Z,12.08
2023-04-22T01:49:47.292Z,12.05
2023-04-22T01:52:15.175Z,12.05
2023-04-22T01:54:42.952Z,12.13
2023-04-22T01:57:14.212Z,12.25
2023-04-22T01:59:43.420Z,12.04
2023-04-22T02:02:11.031Z,11.89
2023-04-22T02:04:38.745Z,12.00
2023-04-22T02:07:06.614Z,12.09
2023-04-22T02:09:34.236Z,12.14
2023-04-22T02:12:02.287Z,11.90
2023-04-22T02:14:30.177Z,11.86
2023-04-22T02:16:59.211Z,11.86
2023-04-22T02:19:26.774Z,11.84
2023-04-22T02:21:54.489Z,11.82
2023-04-22T02:24:22.147Z,11.81
2023-04-22T02:26:50.080Z,11.81
2023-04-22T02:29:17.897Z,11.82
2023-04-22T02:31:45.642Z,11.83
2023-04-22T02:34:14.605Z,11.84
2023-04-22T02:36:42.190Z,11.82
2023-04-22T02:39:09.759Z,11.86
2023-04-22T02:41:37.666Z,11.78
2023-04-22T02:44:05.373Z,11.74
2023-04-22T02:46:33.030Z,11.74
2023-04-22T02:49:00.848Z,11.73
2023-04-22T02:51:29.831Z,11.64
2023-04-22T02:53:57.438Z,11.73
2023-04-22T02:56:26.005Z,11.73
2023-04-22T02:58:53.754Z,11.74
2023-04-22T03:01:21.348Z,11.77
2023-04-22T03:03:49.468Z,11.80
2023-04-22T03:06:18.355Z,11.71
2023-04-22T03:08:47.290Z,11.73
2023-04-22T03:11:14.909Z,11.69
2023-04-22T03:13:42.497Z,11.60
2023-04-22T03:16:10.407Z,11.64
2023-04-22T03:18:38.079Z,11.56
2023-04-22T03:21:07.256Z,11.52
2023-04-22T03:23:35.297Z,11.61
2023-04-22T03:26:05.334Z,11.44
2023-04-22T03:28:32.992Z,11.50
2023-04-22T03:31:00.785Z,11.47
2023-04-22T03:33:28.429Z,11.46
2023-04-22T03:35:56.074Z,11.52
2023-04-22T03:38:23.721Z,11.52
2023-04-22T03:40:51.813Z,11.68
2023-04-22T03:43:20.826Z,11.66
2023-04-22T03:45:48.642Z,11.78
2023-04-22T03:48:16.271Z,11.72
2023-04-22T03:50:43.878Z,11.77
2023-04-22T03:53:11.569Z,11.65
2023-04-22T03:55:39.315Z,11.54
2023-04-22T03:58:07.050Z,11.53
2023-04-22T04:00:36.021Z,11.30
2023-04-22T04:03:03.813Z,11.31
2023-04-22T04:05:31.890Z,11.26
2023-04-22T04:07:59.582Z,11.19
2023-04-22T04:10:28.224Z,11.11
2023-04-22T04:12:55.855Z,11.25
2023-04-22T04:15:23.664Z,11.43
2023-04-22T04:17:52.645Z,11.35
2023-04-22T04:20:20.288Z,11.36
2023-04-22T04:22:47.971Z,11.36
2023-04-22T04:25:15.964Z,11.28
2023-04-22T04:27:44.021Z,11.42
2023-04-22T04:30:12.074Z,11.47
2023-04-22T04:32:39.773Z,11.47
2023-04-22T04:35:09.868Z,11.41
2023-04-22T04:37:40.354Z,11.41
2023-04-22T04:40:10.266Z,11.47
2023-04-22T04:42:38.534Z,11.30
2023-04-22T04:45:07.593Z,11.34
2023-04-22T04:47:35.388Z,11.48
2023-04-22T04:50:04.414Z,11.44
2023-04-22T04:52:33.510Z,11.40
2023-04-22T04:55:01.089Z,11.55
2023-04-22T04:57:31.020Z,11.76
2023-04-22T05:00:01.564Z,11.90
2023-04-22T05:02:29.347Z,11.80
2023-04-22T05:04:57.156Z,11.94
2023-04-22T05:07:24.872Z,12.01
2023-04-22T05:09:53.913Z,12.08
2023-04-22T05:12:21.673Z,12.02
2023-04-22T05:14:49.243Z,12.03
2023-04-22T05:17:16.903Z,12.07
2023-04-22T05:19:44.625Z,12.10
2023-04-22T05:22:12.441Z,12.08
2023-04-22T05:24:40.047Z,12.07
2023-04-22T05:27:09.219Z,11.94
2023-04-22T05:29:38.114Z,11.90
2023-04-22T05:32:06.154Z,11.95
2023-04-22T05:34:34.232Z,12.06
2023-04-22T05:37:03.025Z,12.05
2023-04-22T05:39:30.800Z,12.11
2023-04-22T05:41:58.596Z,12.18
2023-04-22T05:44:27.528Z,12.18
2023-04-22T05:46:57.558Z,12.32
2023-04-22T05:49:25.165Z,12.35
2023-04-22T05:51:52.790Z,12.51
2023-04-22T05:54:20.413Z,12.71
2023-04-22T05:56:48.046Z,12.93
2023-04-22T05:59:15.965Z,13.13
2023-04-22T06:01:45.080Z,13.45
2023-04-22T06:04:13.345Z,13.98
2023-04-22T06:06:41.228Z,14.80
2023-04-22T06:09:09.151Z,15.52
2023-04-22T06:11:37.101Z,16.33
2023-04-22T06:14:04.834Z,16.75
2023-04-22T06:16:32.586Z,16.63
2023-04-22T06:19:03.947Z,15.82
2023-04-22T06:21:32.896Z,15.98
2023-04-22T06:24:01.271Z,15.40
2023-04-22T06:26:28.988Z,15.40
2023-04-22T06:28:56.821Z,15.46
2023-04-22T06:31:24.556Z,15.16
2023-04-22T06:33:52.126Z,14.92
2023-04-22T06:36:21.134Z,14.79
2023-04-22T06:38:48.871Z,15.12
2023-04-22T06:41:17.398Z,15.37
2023-04-22T06:43:45.411Z,15.39
2023-04-22T06:46:14.245Z,16.06
2023-04-22T06:48:41.937Z,16.26
2023-04-22T06:51:09.734Z,17.18
2023-04-22T06:53:38.731Z,16.39
2023-04-22T06:56:07.297Z,16.19
2023-04-22T06:58:35.119Z,16.76
2023-04-22T07:01:03.027Z,17.01
2023-04-22T07:03:30.793Z,17.80
2023-04-22T07:05:58.631Z,17.76
2023-04-22T07:08:26.396Z,16.53
2023-04-22T07:10:55.316Z,16.02
2023-04-22T07:13:23.247Z,15.74
2023-04-22T07:15:51.045Z,15.65
2023-04-22T07:18:18.728Z,16.42
2023-04-22T07:20:46.531Z,17.67
2023-04-22T07:23:14.130Z,18.67
2023-04-22T07:25:41.793Z,19.79
2023-04-22T07:28:10.817Z,19.03
2023-04-22T07:30:38.623Z,18.64
2023-04-22T07:33:06.259Z,19.79
2023-04-22T07:35:33.909Z,18.82
2023-04-22T07:38:01.556Z,18.54
2023-04-22T07:40:29.151Z,19.29
2023-04-22T07:42:56.943Z,20.16
2023-04-22T07:45:29.668Z,20.18
2023-04-22T07:47:57.622Z,21.95
2023-04-22T07:50:25.418Z,22.69
2023-04-22T07:52:53.054Z,23.67
2023-04-22T07:55:20.952Z,24.84
2023-04-22T07:57:48.575Z,22.85
2023-04-22T08:00:17.056Z,22.02
2023-04-22T08:02:47.472Z,21.89
2023-04-22T08:05:15.732Z,20.90
2023-04-22T08:07:43.342Z,21.35
2023-04-22T08:10:13.437Z,21.63
2023-04-22T08:12:43.174Z,21.66
2023-04-22T08:15:11.317Z,21.43
2023-04-22T08:17:39.434Z,21.49
2023-04-22T08:20:10.379Z,21.48
2023-04-22T08:25:08.457Z,22.50
2023-04-22T08:27:36.238Z,22.28
2023-04-22T08:30:04.447Z,22.28
2023-04-22T08:32:32.733Z,22.02
2023-04-22T08:35:04.909Z,20.97
2023-04-22T08:37:35.075Z,20.56
2023-04-22T08:40:02.848Z,20.59
2023-04-22T08:42:30.891Z,20.55
2023-04-22T08:44:59.484Z,20.89
2023-04-22T08:47:28.041Z,21.42
2023-04-22T08:49:56.731Z,21.49
2023-04-22T08:52:24.565Z,21.00
2023-04-22T08:54:54.795Z,21.39
2023-04-22T08:57:22.753Z,21.50
2023-04-22T08:59:51.094Z,20.97
2023-04-22T09:02:22.455Z,21.01
2023-04-22T09:04:51.766Z,21.31
2023-04-22T09:07:25.069Z,20.87
2023-04-22T09:09:55.685Z,20.55
2023-04-22T09:12:23.373Z,21.29
2023-04-22T09:14:51.285Z,21.22
2023-04-22T09:17:21.090Z,21.59
2023-04-22T09:19:58.434Z,21.85
2023-04-22T09:22:27.909Z,21.77
2023-04-22T09:24:58.413Z,22.03
2023-04-22T09:27:26.518Z,21.69
2023-04-22T09:29:54.410Z,21.02
2023-04-22T09:32:25.853Z,21.56
2023-04-22T09:34:55.780Z,22.17
2023-04-22T09:37:33.243Z,22.10
2023-04-22T09:40:16.565Z,21.98
2023-04-22T09:42:49.418Z,21.92
2023-04-22T09:45:26.303Z,22.44
2023-04-22T09:47:55.043Z,22.42
2023-04-22T09:50:23.306Z,21.68
2023-04-22T09:52:56.019Z,22.26
2023-04-22T09:55:26.348Z,21.47
2023-04-22T09:57:55.642Z,21.91
2023-04-22T10:00:25.332Z,22.07
2023-04-22T10:02:53.208Z,22.55
2023-04-22T10:05:21.069Z,22.94
2023-04-22T10:07:49.101Z,22.89
2023-04-22T10:10:16.842Z,23.30
2023-04-22T10:12:47.993Z,23.53
2023-04-22T10:15:15.824Z,23.16
2023-04-22T10:17:45.942Z,22.83
2023-04-22T10:20:18.348Z,23.67
2023-04-22T10:22:46.811Z,23.31
2023-04-22T10:25:29.050Z,23.23
2023-04-22T10:28:03.830Z,23.23
2023-04-22T10:30:33.484Z,23.04
2023-04-22T10:33:42.674Z,23.17
2023-04-22T10:36:18.681Z,22.73
2023-04-22T10:39:18.802Z,21.89
2023-04-22T10:41:55.356Z,21.42
2023-04-22T10:44:28.468Z,21.86
2023-04-22T10:47:03.656Z,22.30
2023-04-22T10:49:35.315Z,22.59
2023-04-22T10:52:05.029Z,23.12
2023-04-22T10:55:01.520Z,23.37
2023-04-22T10:57:40.146Z,23.78
2023-04-22T11:00:23.030Z,23.57
2023-04-22T11:02:55.339Z,23.90
2023-04-22T11:05:26.317Z,23.74
2023-04-22T11:07:56.084Z,23.80
2023-04-22T11:10:42.980Z,24.06
2023-04-22T11:13:16.609Z,23.83
2023-04-22T11:15:48.238Z,23.89
2023-04-22T11:18:23.611Z,24.09
2023-04-22T11:20:53.326Z,24.25
2023-04-22T11:23:25.260Z,24.27
2023-04-22T11:25:57.597Z,23.38
2023-04-22T11:28:25.455Z,23.33
2023-04-22T11:31:02.955Z,23.63
2023-04-22T11:33:30.794Z,23.63
2023-04-22T11:35:58.803Z,22.85
2023-04-22T11:38:26.850Z,23.12
2023-04-22T11:40:58.755Z,23.20
2023-04-22T11:43:26.877Z,23.47
2023-04-22T11:45:57.249Z,23.55
2023-04-22T11:48:25.191Z,23.94
2023-04-22T11:51:09.602Z,23.80
2023-04-22T11:53:38.654Z,23.34
2023-04-22T11:56:06.334Z,23.38
2023-04-22T11:58:34.022Z,23.57
2023-04-22T12:01:02.979Z,23.35
2023-04-22T12:03:32.089Z,23.19
2023-04-22T12:06:02.582Z,23.25
2023-04-22T12:08:33.714Z,23.45
2023-04-22T12:11:03.990Z,23.06
2023-04-22T12:13:34.614Z,23.19
2023-04-22T12:16:05.375Z,23.19
2023-04-22T12:18:33.886Z,22.93
2023-04-22T12:21:02.367Z,23.33
2023-04-22T12:23:30.308Z,23.50
2023-04-22T12:25:58.527Z,23.47
2023-04-22T12:28:26.135Z,23.35
2023-04-22T12:30:53.758Z,23.33
2023-04-22T12:33:22.946Z,23.25
2023-04-22T12:35:52.514Z,22.83
2023-04-22T12:38:20.246Z,22.96
2023-04-22T12:40:47.791Z,22.94
2023-04-22T12:43:15.496Z,23.29
2023-04-22T12:45:43.346Z,23.74
2023-04-22T12:48:11.206Z,24.12
2023-04-22T12:50:40.373Z,24.05
2023-04-22T12:53:08.267Z,24.13
2023-04-22T12:55:36.452Z,24.39
2023-04-22T12:58:07.050Z,24.63
2023-04-22T13:00:34.804Z,24.96
2023-04-22T13:03:02.599Z,24.99
2023-04-22T13:05:31.643Z,24.89
2023-04-22T13:08:07.105Z,24.92
2023-04-22T13:10:36.116Z,24.88
2023-04-22T13:13:17.979Z,25.07
2023-04-22T13:15:47.379Z,25.02
2023-04-22T13:18:18.358Z,24.96
2023-04-22T13:20:47.601Z,24.95
2023-04-22T13:23:17.036Z,24.97
2023-04-22T13:25:45.018Z,24.80
2023-04-22T13:28:12.741Z,24.70
2023-04-22T13:30:40.476Z,24.53
2023-04-22T13:33:08.478Z,24.34
2023-04-22T13:35:36.569Z,23.80
2023-04-22T13:38:05.272Z,23.24
2023-04-22T13:40:34.244Z,23.15
2023-04-22T13:43:01.957Z,23.12
2023-04-22T13:45:29.672Z,23.01
2023-04-22T13:47:57.444Z,22.85
2023-04-22T13:50:25.326Z,22.40
2023-04-22T13:52:52.989Z,22.22
2023-04-22T13:55:21.098Z,22.02
2023-04-22T13:57:51.589Z,22.03
2023-04-22T14:00:20.640Z,21.81
2023-04-22T14:02:48.856Z,21.64
2023-04-22T14:05:16.774Z,21.51
2023-04-22T14:07:44.522Z,21.51
2023-04-22T14:10:13.688Z,21.50
2023-04-22T14:12:41.333Z,21.29
2023-04-22T14:15:11.507Z,21.23
2023-04-22T14:17:39.384Z,21.13
2023-04-22T14:20:08.660Z,20.98
2023-04-22T14:22:36.282Z,20.86
2023-04-22T14:25:04.144Z,20.82
2023-04-22T14:27:32.845Z,20.73
2023-04-22T14:30:00.418Z,20.61
2023-04-22T14:32:29.415Z,20.59
2023-04-22T14:34:57.051Z,20.55
2023-04-22T14:37:24.763Z,20.59
2023-04-22T14:39:52.395Z,20.71
2023-04-22T14:42:20.422Z,20.66
2023-04-22T14:44:48.190Z,20.54
2023-04-22T14:47:15.782Z,20.47
2023-04-22T14:49:44.804Z,20.37
2023-04-22T14:52:12.575Z,20.34
2023-04-22T14:54:40.125Z,20.10
2023-04-22T14:57:07.788Z,19.90
2023-04-22T14:59:35.555Z,19.75
2023-04-22T15:02:03.654Z,19.76
2023-04-22T15:04:31.574Z,19.93
2023-04-22T15:07:01.592Z,19.84
2023-04-22T15:09:29.249Z,19.84
2023-04-22T15:11:59.510Z,19.78
2023-04-22T15:14:27.116Z,19.84
2023-04-22T15:16:55.010Z,20.07
2023-04-22T15:19:22.614Z,20.20
2023-04-22T15:21:50.261Z,20.56
2023-04-22T15:24:24.219Z,20.63
2023-04-22T15:26:53.343Z,20.68
2023-04-22T15:29:21.742Z,20.66
2023-04-22T15:31:49.476Z,20.71
2023-04-22T15:34:17.605Z,20.67
2023-04-22T15:36:45.841Z,20.75
2023-04-22T15:39:13.566Z,20.71
2023-04-22T15:41:43.515Z,20.63
2023-04-22T15:44:12.991Z,20.75
2023-04-22T15:46:40.918Z,20.71
2023-04-22T15:49:08.553Z,20.87
2023-04-22T15:51:36.414Z,20.83
2023-04-22T15:54:04.628Z,20.81
2023-04-22T15:56:34.489Z,20.84
2023-04-22T15:59:08.016Z,20.46
2023-04-22T16:01:40.479Z,20.32
2023-04-22T16:04:08.779Z,20.16
2023-04-22T16:06:38.016Z,20.07
2023-04-22T16:09:05.982Z,20.03
2023-04-22T16:11:33.848Z,20.24
2023-04-22T16:14:02.874Z,20.16
2023-04-22T16:16:30.874Z,20.12
2023-04-22T16:18:59.508Z,20.10
2023-04-22T16:21:28.647Z,20.07
2023-04-22T16:23:56.313Z,20.10
2023-04-22T16:26:24.065Z,20.04
2023-04-22T16:28:51.805Z,19.96
2023-04-22T16:31:22.925Z,20.07
2023-04-22T16:33:50.856Z,19.90
2023-04-22T16:36:18.599Z,19.96
2023-04-22T16:38:46.620Z,19.90
2023-04-22T16:41:15.320Z,19.84
2023-04-22T16:43:44.084Z,19.96
2023-04-22T16:46:11.772Z,20.00
2023-04-22T16:48:40.775Z,19.99
2023-04-22T16:51:08.436Z,19.92
2023-04-22T16:53:36.573Z,19.89
2023-04-22T16:56:05.311Z,20.16
2023-04-22T16:58:33.137Z,20.11
2023-04-22T17:01:01.068Z,20.07
2023-04-22T17:03:29.077Z,19.96
2023-04-22T17:05:58.239Z,20.00
2023-04-22T17:08:26.010Z,19.87
2023-04-22T17:10:53.612Z,19.73
2023-04-22T17:13:21.311Z,19.80
2023-04-22T17:15:49.059Z,19.66
2023-04-22T17:18:19.292Z,19.65
2023-04-22T17:20:46.906Z,19.59
2023-04-22T17:23:16.343Z,19.48
2023-04-22T17:25:46.819Z,19.43
2023-04-22T17:28:14.530Z,19.24
2023-04-22T17:30:42.350Z,19.18
2023-04-22T17:33:10.606Z,19.04
2023-04-22T17:35:38.219Z,18.90
2023-04-22T17:38:06.027Z,18.92
2023-04-22T17:40:34.962Z,18.94
2023-04-22T17:43:02.672Z,18.75
2023-04-22T17:45:30.332Z,18.71
2023-04-22T17:47:57.945Z,18.71
2023-04-22T17:50:25.737Z,18.68
2023-04-22T17:52:53.383Z,18.70
2023-04-22T17:55:21.407Z,18.60
2023-04-22T17:57:50.539Z,18.54
2023-04-22T18:00:19.132Z,18.46
2023-04-22T18:02:47.099Z,18.38
2023-04-22T18:05:15.873Z,18.22
2023-04-22T18:07:43.482Z,18.15
2023-04-22T18:10:12.112Z,18.24
2023-04-22T18:12:40.362Z,18.06
2023-04-22T18:15:09.906Z,18.14
2023-04-22T18:17:37.551Z,18.13
2023-04-22T18:20:17.480Z,18.01
2023-04-22T18:22:46.963Z,17.85
2023-04-22T18:25:14.564Z,17.86
2023-04-22T18:27:42.169Z,17.88
2023-04-22T18:30:12.187Z,17.71
2023-04-22T18:32:40.397Z,17.66
2023-04-22T18:35:09.603Z,17.68
2023-04-22T18:37:40.653Z,17.70
2023-04-22T18:40:09.411Z,17.68
2023-04-22T18:42:38.302Z,17.57
2023-04-22T18:45:08.020Z,17.59
2023-04-22T18:47:36.995Z,17.49
2023-04-22T18:50:04.989Z,17.48
2023-04-22T18:52:33.331Z,17.45
2023-04-22T18:55:01.051Z,17.33
2023-04-22T18:57:28.821Z,17.28
2023-04-22T18:59:56.509Z,17.31
2023-04-22T19:02:24.458Z,17.17
2023-04-22T19:04:54.965Z,17.18
2023-04-22T19:07:22.667Z,17.15
2023-04-22T19:09:50.245Z,17.12
2023-04-22T19:12:19.455Z,16.94
2023-04-22T19:14:48.164Z,16.88
2023-04-22T19:17:15.785Z,16.61
2023-04-22T19:19:44.266Z,16.58
2023-04-22T19:22:13.648Z,16.44
2023-04-22T19:24:41.591Z,16.37
2023-04-22T19:27:12.357Z,16.34
2023-04-22T19:29:40.747Z,16.35
2023-04-22T19:32:09.734Z,16.35
2023-04-22T19:34:38.034Z,16.40
2023-04-22T19:37:06.018Z,16.36
2023-04-22T19:39:35.341Z,16.36
2023-04-22T19:42:03.819Z,16.23
2023-04-22T19:44:34.156Z,16.29
2023-04-22T19:47:01.998Z,16.25
2023-04-22T19:49:32.707Z,16.19
2023-04-22T19:52:03.187Z,16.13
2023-04-22T19:54:31.756Z,16.18
2023-04-22T19:57:06.698Z,16.09
2023-04-22T19:59:35.319Z,16.05
2023-04-22T20:02:03.393Z,16.07
2023-04-22T20:04:32.451Z,16.11
2023-04-22T20:07:02.852Z,15.98
2023-04-22T20:09:32.758Z,15.95
2023-04-22T20:12:02.813Z,15.89
2023-04-22T20:14:31.826Z,15.83
2023-04-22T20:16:59.916Z,15.85
2023-04-22T20:19:28.380Z,15.79
2023-04-22T20:21:58.595Z,15.74
2023-04-22T20:24:29.287Z,15.71
2023-04-22T20:26:57.195Z,15.66
2023-04-22T20:29:26.870Z,15.71
2023-04-22T20:31:55.561Z,15.66
2023-04-22T20:34:23.886Z,15.61
2023-04-22T20:36:53.548Z,15.66
2023-04-22T20:39:23.909Z,15.61
2023-04-22T20:41:55.476Z,15.58
2023-04-22T20:44:24.080Z,15.48
2023-04-22T20:46:55.610Z,15.42
2023-04-22T20:49:23.183Z,15.43
2023-04-22T20:51:51.182Z,15.37
2023-04-22T20:54:28.499Z,15.39
2023-04-22T20:56:57.691Z,15.31
2023-04-22T20:59:25.458Z,15.27
2023-04-22T21:01:55.079Z,15.27
2023-04-22T21:04:23.835Z,15.32
2023-04-22T21:06:52.461Z,15.34
2023-04-22T21:09:21.667Z,15.17
2023-04-22T21:11:49.933Z,15.11
2023-04-22T21:14:18.329Z,15.11
2023-04-22T21:16:50.598Z,14.99
2023-04-22T21:19:20.435Z,14.92
2023-04-22T21:21:52.028Z,14.95
2023-04-22T21:24:20.994Z,14.87
2023-04-22T21:26:49.254Z,14.87
2023-04-22T21:29:17.467Z,14.88
2023-04-22T21:31:51.609Z,14.90
2023-04-22T21:34:26.717Z,14.71
2023-04-22T21:36:54.321Z,14.71
2023-04-22T21:39:21.932Z,14.72
2023-04-22T21:41:49.962Z,14.59
2023-04-22T21:44:17.598Z,14.59
2023-04-22T21:46:45.562Z,14.57
2023-04-22T21:49:13.342Z,14.50
2023-04-22T21:51:42.305Z,14.40
2023-04-22T21:54:09.872Z,14.38
2023-04-22T21:56:37.574Z,14.44
2023-04-22T21:59:05.440Z,14.50
2023-04-22T22:01:33.056Z,14.43
2023-04-22T22:04:03.714Z,14.38
2023-04-22T22:06:33.160Z,14.34
2023-04-22T22:09:02.032Z,14.37
2023-04-22T22:11:31.143Z,14.35
2023-04-22T22:13:59.446Z,14.38
2023-04-22T22:16:27.224Z,14.44
2023-04-22T22:18:55.722Z,14.43
2023-04-22T22:21:23.296Z,14.27
2023-04-22T22:23:50.934Z,14.16
2023-04-22T22:26:22.770Z,14.16
2023-04-22T22:28:50.573Z,14.15
2023-04-22T22:31:18.684Z,14.22
2023-04-22T22:33:46.268Z,14.09
2023-04-22T22:36:13.874Z,14.01
2023-04-22T22:38:41.434Z,14.03
2023-04-22T22:41:09.056Z,13.98
2023-04-22T22:43:40.535Z,14.02
2023-04-22T22:46:08.138Z,14.02
2023-04-22T22:48:35.997Z,13.85
2023-04-22T22:51:03.617Z,13.81
2023-04-22T22:53:32.986Z,13.92
2023-04-22T22:56:00.612Z,13.90
2023-04-22T22:58:28.350Z,13.90
2023-04-22T23:00:57.270Z,13.84
2023-04-22T23:03:25.015Z,13.81
2023-04-22T23:05:52.755Z,13.79
2023-04-22T23:08:20.380Z,13.73
2023-04-22T23:10:47.992Z,13.78
2023-04-22T23:13:15.549Z,13.72
2023-04-22T23:15:43.202Z,13.69
2023-04-22T23:18:14.197Z,13.65
2023-04-22T23:20:42.959Z,13.60
2023-04-22T23:23:12.794Z,13.58
2023-04-22T23:25:40.877Z,13.54
2023-04-22T23:28:08.941Z,13.41
2023-04-22T23:30:36.938Z,13.36
2023-04-22T23:33:05.235Z,13.43
2023-04-22T23:35:36.680Z,13.35
2023-04-22T23:38:05.406Z,13.40
2023-04-22T23:40:32.964Z,13.36
2023-04-22T23:43:00.690Z,13.54
2023-04-22T23:45:28.370Z,13.48
2023-04-22T23:47:56.018Z,13.66
2023-04-22T23:50:23.615Z,13.56
2023-04-22T23:52:52.717Z,13.51
2023-04-22T23:55:20.909Z,13.55
2023-04-22T23:57:48.952Z,13.57
